Time;durP1;ratioP1;P1;durP2;ratioP2;P2;SDS_P1;SDS_P2;PMS_P1;PMS_P2;Temp;Humidity;BMP_temperature;BMP_pressure;BME280_temperature;BME280_humidity;BME280_pressure;Samples;Min_cycle;Max_cycle;Signal;HPM_P1;HPM_P2
2021/08/10 00:01:29;;;;;;;;;;;15.10;99.90;;;;;;5072609;28;19908;-65
2021/08/10 00:03:56;;;;;;;;;;;15.30;99.90;;;;;;5072818;28;19908;-65
2021/08/10 00:06:23;;;;;;;;;;;15.40;99.90;;;;;;5071955;28;19908;-65
2021/08/10 00:08:49;;;;;;;;;;;15.40;99.90;;;;;;5072725;28;19912;-66
2021/08/10 00:11:16;;;;;;;;;;;15.60;99.90;;;;;;5072504;28;19960;-66
2021/08/10 00:13:43;;;;;;;;;;;15.80;99.90;;;;;;5072372;28;19909;-66
2021/08/10 00:16:10;;;;;;;;;;;16.00;99.90;;;;;;5054693;28;19909;-66
2021/08/10 00:18:37;;;;;;;;;;;16.00;99.90;;;;;;5072347;28;19913;-67
2021/08/10 00:21:03;;;;;;;;;;;16.10;99.90;;;;;;5072515;28;19909;-66
2021/08/10 00:23:30;;;;;;;;;;;16.00;99.90;;;;;;5072137;28;19908;-66
2021/08/10 00:25:57;;;;;;;;;;;16.20;99.90;;;;;;5072505;28;19939;-66
2021/08/10 00:28:23;;;;;;;;;;;16.50;99.90;;;;;;5072330;28;20321;-66
2021/08/10 00:30:50;;;;;;;;;;;16.50;99.90;;;;;;5072106;28;20012;-65
2021/08/10 00:33:17;;;;;;;;;;;16.50;99.90;;;;;;5072438;28;19909;-65
2021/08/10 00:35:43;;;;;;;;;;;16.60;99.90;;;;;;5071959;28;19966;-65
2021/08/10 00:38:10;;;;;;;;;;;16.70;99.90;;;;;;5072182;28;19958;-66
2021/08/10 00:40:38;;;;;;;;;;;16.70;99.90;;;;;;5072262;28;20003;-66
2021/08/10 00:43:23;;;;;;;;;;;16.70;99.90;;;;;;5054110;28;19909;-65
2021/08/10 00:45:50;;;;;;;;;;;16.70;99.90;;;;;;5071899;28;20220;-66
2021/08/10 00:48:19;;;;;;;;;;;16.80;99.90;;;;;;5072252;28;19916;-66
2021/08/10 00:50:46;;;;;;;;;;;16.90;99.90;;;;;;5072290;28;19921;-65
2021/08/10 00:53:12;;;;;;;;;;;17.10;99.90;;;;;;5071742;28;19952;-66
2021/08/10 00:55:39;;;;;;;;;;;17.10;99.90;;;;;;5071872;28;20356;-66
2021/08/10 00:58:06;;;;;;;;;;;17.10;99.90;;;;;;5072038;28;20018;-65
2021/08/10 01:00:33;;;;;;;;;;;17.10;99.90;;;;;;5072093;28;19998;-65
2021/08/10 01:03:00;;;;;;;;;;;17.30;99.90;;;;;;5072148;28;19966;-65
2021/08/10 01:05:28;;;;;;;;;;;17.60;99.90;;;;;;5071810;28;19908;-65
2021/08/10 01:07:57;;;;;;;;;;;17.70;99.90;;;;;;5072199;28;20378;-64
2021/08/10 01:10:26;;;;;;;;;;;17.90;99.50;;;;;;5072028;28;19913;-64
2021/08/10 01:12:58;;;;;;;;;;;18.20;98.90;;;;;;5071752;28;19927;-65
2021/08/10 01:15:30;;;;;;;;;;;18.70;98.30;;;;;;5072102;28;19909;-64
2021/08/10 01:18:00;;;;;;;;;;;19.20;97.50;;;;;;5072167;28;19915;-64
2021/08/10 01:20:46;;;;;;;;;;;19.60;96.60;;;;;;5076126;28;19913;-64
2021/08/10 01:23:15;;;;;;;;;;;20.00;95.40;;;;;;5075664;28;20307;-65
2021/08/10 01:26:00;;;;;;;;;;;20.00;95.10;;;;;;5075591;28;19974;-67
2021/08/10 01:28:29;;;;;;;;;;;20.10;94.90;;;;;;5075770;28;19947;-64
2021/08/10 01:31:06;;;;;;;;;;;19.80;94.90;;;;;;5075735;28;20003;-64
2021/08/10 01:33:43;;;;;;;;;;;19.70;95.40;;;;;;5075502;28;19909;-65
2021/08/10 01:36:11;;;;;;;;;;;19.60;95.00;;;;;;5075765;28;19908;-65
2021/08/10 01:38:38;;;;;;;;;;;19.30;95.70;;;;;;5075516;28;19995;-65
2021/08/10 01:41:05;;;;;;;;;;;19.10;95.70;;;;;;5075273;28;20049;-65
2021/08/10 01:43:33;;;;;;;;;;;19.00;96.20;;;;;;5075109;28;20054;-65
2021/08/10 01:46:00;;;;;;;;;;;18.90;95.80;;;;;;5075182;28;20370;-65
2021/08/10 01:48:27;;;;;;;;;;;18.80;95.60;;;;;;5075393;28;19913;-67
2021/08/10 01:50:55;;;;;;;;;;;18.60;95.50;;;;;;5075212;28;19920;-64
2021/08/10 01:53:23;;;;;;;;;;;18.60;96.10;;;;;;5075296;28;19931;-65
2021/08/10 01:55:50;;;;;;;;;;;18.40;95.80;;;;;;5074945;28;19908;-65
2021/08/10 01:58:16;;;;;;;;;;;18.30;96.20;;;;;;5074820;28;19909;-64
2021/08/10 02:00:45;;;;;;;;;;;18.20;96.60;;;;;;5075283;28;19915;-64
2021/08/10 02:03:12;;;;;;;;;;;18.20;96.90;;;;;;5074759;28;19916;-65
2021/08/10 02:05:41;;;;;;;;;;;18.70;96.70;;;;;;5074588;28;19909;-65
2021/08/10 02:08:08;;;;;;;;;;;18.70;96.10;;;;;;5075021;28;19908;-65
2021/08/10 02:10:35;;;;;;;;;;;18.60;96.40;;;;;;5074387;28;20331;-65
2021/08/10 02:13:02;;;;;;;;;;;18.70;96.00;;;;;;5074852;28;19917;-65
2021/08/10 02:15:29;;;;;;;;;;;18.80;96.00;;;;;;5074704;28;19909;-64
2021/08/10 02:17:56;;;;;;;;;;;19.00;95.10;;;;;;5074807;28;20359;-65
2021/08/10 02:20:22;;;;;;;;;;;19.10;94.70;;;;;;5074677;28;19915;-68
2021/08/10 02:22:50;;;;;;;;;;;19.00;95.00;;;;;;5074722;28;19939;-68
2021/08/10 02:25:19;;;;;;;;;;;19.00;95.00;;;;;;5074456;28;19909;-65
2021/08/10 02:27:49;;;;;;;;;;;18.90;95.00;;;;;;5074170;28;20359;-64
2021/08/10 02:30:19;;;;;;;;;;;19.00;94.10;;;;;;5074107;28;20378;-65
2021/08/10 02:32:47;;;;;;;;;;;19.10;93.90;;;;;;5074176;28;19916;-64
2021/08/10 02:35:15;;;;;;;;;;;19.00;94.60;;;;;;5074493;28;20284;-65
2021/08/10 02:37:43;;;;;;;;;;;19.00;94.00;;;;;;5074066;28;19908;-64
2021/08/10 02:40:10;;;;;;;;;;;19.00;94.30;;;;;;5074576;28;19909;-64
2021/08/10 02:42:37;;;;;;;;;;;18.90;94.70;;;;;;5074312;28;19909;-64
2021/08/10 02:45:04;;;;;;;;;;;19.00;94.70;;;;;;5074200;28;19909;-64
2021/08/10 02:47:31;;;;;;;;;;;19.10;94.80;;;;;;5073921;28;20378;-64
2021/08/10 02:49:58;;;;;;;;;;;19.30;94.10;;;;;;5073861;28;19913;-65
2021/08/10 02:52:24;;;;;;;;;;;19.10;94.60;;;;;;5073774;28;19913;-64
2021/08/10 02:54:51;;;;;;;;;;;19.00;94.60;;;;;;5073837;28;20003;-64
2021/08/10 02:57:26;;;;;;;;;;;18.90;95.20;;;;;;5073769;28;20042;-65
2021/08/10 03:00:00;;;;;;;;;;;18.90;95.00;;;;;;5073759;28;19909;-65
2021/08/10 03:02:31;;;;;;;;;;;19.20;94.80;;;;;;5073943;28;19962;-65
2021/08/10 03:05:14;;;;;;;;;;;19.20;95.10;;;;;;5073825;28;19935;-64
2021/08/10 03:07:44;;;;;;;;;;;19.10;94.80;;;;;;5073839;28;19909;-65
2021/08/10 03:10:11;;;;;;;;;;;19.00;95.30;;;;;;5073634;28;19919;-65
2021/08/10 03:12:41;;;;;;;;;;;18.80;95.30;;;;;;5073692;28;19912;-64
2021/08/10 03:15:08;;;;;;;;;;;19.10;94.60;;;;;;5073703;28;19950;-65
2021/08/10 03:17:38;;;;;;;;;;;19.00;94.40;;;;;;5073250;28;19908;-64
2021/08/10 03:20:06;;;;;;;;;;;19.10;95.00;;;;;;5073653;28;19993;-65
2021/08/10 03:22:34;;;;;;;;;;;19.00;94.80;;;;;;5073595;28;19915;-66
2021/08/10 03:25:02;;;;;;;;;;;19.00;94.80;;;;;;5073452;28;19909;-65
2021/08/10 03:27:29;;;;;;;;;;;19.10;94.50;;;;;;5073143;28;20374;-66
2021/08/10 03:29:56;;;;;;;;;;;19.10;95.00;;;;;;5073188;28;19961;-65
2021/08/10 03:32:23;;;;;;;;;;;19.10;94.70;;;;;;5073135;28;20290;-66
2021/08/10 03:34:50;;;;;;;;;;;19.00;94.10;;;;;;5073691;28;19908;-65
2021/08/10 03:37:17;;;;;;;;;;;18.90;95.00;;;;;;5089053;28;20008;-65
2021/08/10 03:39:44;;;;;;;;;;;19.00;94.70;;;;;;5073029;28;19908;-66
2021/08/10 03:42:11;;;;;;;;;;;19.00;94.70;;;;;;5072329;28;20003;-68
2021/08/10 03:44:43;;;;;;;;;;;19.00;93.90;;;;;;5073081;28;19981;-64
2021/08/10 03:47:10;;;;;;;;;;;19.10;94.10;;;;;;5072811;28;19939;-64
2021/08/10 03:49:37;;;;;;;;;;;19.10;93.90;;;;;;5072814;28;19908;-64
2021/08/10 03:52:04;;;;;;;;;;;19.20;93.80;;;;;;5073040;28;19916;-65
2021/08/10 03:54:31;;;;;;;;;;;19.30;94.00;;;;;;5072990;28;19915;-67
2021/08/10 03:56:59;;;;;;;;;;;19.30;93.80;;;;;;5072824;28;19912;-65
2021/08/10 03:59:28;;;;;;;;;;;19.70;93.20;;;;;;5072584;28;19999;-64
2021/08/10 04:01:55;;;;;;;;;;;19.70;93.60;;;;;;5072758;28;19935;-65
2021/08/10 04:04:24;;;;;;;;;;;19.60;93.50;;;;;;5088310;28;19982;-64
2021/08/10 04:06:51;;;;;;;;;;;19.40;93.90;;;;;;5073230;28;19920;-64
2021/08/10 04:09:17;;;;;;;;;;;19.20;93.30;;;;;;5072713;28;19959;-64
2021/08/10 04:11:44;;;;;;;;;;;19.10;93.30;;;;;;5072414;28;19920;-65
2021/08/10 04:14:12;;;;;;;;;;;19.00;94.00;;;;;;5072531;28;19959;-64
2021/08/10 04:16:52;;;;;;;;;;;19.10;93.90;;;;;;5072780;28;19912;-65
2021/08/10 04:19:20;;;;;;;;;;;19.20;94.30;;;;;;5072546;28;20379;-65
2021/08/10 04:21:46;;;;;;;;;;;19.40;94.00;;;;;;5072486;28;19931;-64
2021/08/10 04:24:13;;;;;;;;;;;19.30;94.20;;;;;;5072646;28;19991;-64
2021/08/10 04:26:40;;;;;;;;;;;19.30;94.20;;;;;;5071991;28;20286;-64
2021/08/10 04:29:06;;;;;;;;;;;19.40;93.80;;;;;;5072623;28;19912;-64
2021/08/10 04:31:36;;;;;;;;;;;19.30;94.40;;;;;;5072196;28;20378;-64
2021/08/10 04:34:12;;;;;;;;;;;19.20;93.80;;;;;;5072485;28;19908;-64
2021/08/10 04:36:38;;;;;;;;;;;19.10;94.10;;;;;;5072411;28;19999;-64
2021/08/10 04:39:09;;;;;;;;;;;19.10;94.20;;;;;;5071834;28;19909;-64
2021/08/10 04:41:38;;;;;;;;;;;19.10;94.30;;;;;;5072275;28;19912;-64
2021/08/10 04:44:10;;;;;;;;;;;19.30;94.20;;;;;;5072438;28;19909;-65
2021/08/10 04:46:36;;;;;;;;;;;19.60;93.40;;;;;;5072133;28;20431;-64
2021/08/10 04:49:06;;;;;;;;;;;19.60;93.10;;;;;;5054566;28;19908;-64
2021/08/10 04:51:33;;;;;;;;;;;19.50;93.60;;;;;;5072074;28;20401;-64
2021/08/10 04:53:59;;;;;;;;;;;19.30;93.80;;;;;;5078057;28;19935;-65
2021/08/10 04:56:26;;;;;;;;;;;19.30;93.40;;;;;;5078019;28;19908;-64
2021/08/10 04:58:54;;;;;;;;;;;19.20;93.70;;;;;;5078861;28;19962;-64
2021/08/10 05:01:24;;;;;;;;;;;19.10;94.30;;;;;;5078151;28;20279;-64
2021/08/10 05:03:56;;;;;;;;;;;19.00;94.20;;;;;;5078658;28;19912;-64
2021/08/10 05:06:22;;;;;;;;;;;19.00;94.00;;;;;;5060815;28;20323;-64
2021/08/10 05:08:49;;;;;;;;;;;18.90;94.20;;;;;;5078783;28;19946;-65
2021/08/10 05:11:20;;;;;;;;;;;18.80;93.90;;;;;;5078488;28;19916;-64
2021/08/10 05:13:50;;;;;;;;;;;18.90;94.40;;;;;;5078432;28;20011;-64
2021/08/10 05:16:19;;;;;;;;;;;18.80;93.90;;;;;;5078386;28;20325;-64
2021/08/10 05:18:49;;;;;;;;;;;18.90;93.90;;;;;;5078567;28;19909;-64
2021/08/10 05:21:19;;;;;;;;;;;19.00;94.00;;;;;;5078790;28;19909;-64
2021/08/10 05:23:49;;;;;;;;;;;19.00;93.80;;;;;;5078412;28;19954;-64
2021/08/10 05:26:17;;;;;;;;;;;19.10;93.90;;;;;;5078429;28;19913;-64
2021/08/10 05:28:43;;;;;;;;;;;19.00;92.80;;;;;;5078520;28;19967;-64
2021/08/10 05:31:13;;;;;;;;;;;18.90;92.80;;;;;;5077669;28;20015;-64
2021/08/10 05:33:51;;;;;;;;;;;18.80;93.40;;;;;;5078522;28;19936;-64
2021/08/10 05:36:21;;;;;;;;;;;18.80;93.10;;;;;;5078462;28;19919;-64
2021/08/10 05:38:53;;;;;;;;;;;19.00;92.70;;;;;;5077650;28;19912;-64
2021/08/10 05:41:25;;;;;;;;;;;19.00;92.70;;;;;;5078264;28;20006;-64
2021/08/10 05:43:55;;;;;;;;;;;18.90;92.60;;;;;;5078930;28;19908;-64
2021/08/10 05:46:27;;;;;;;;;;;18.90;92.90;;;;;;5078240;28;19916;-64
2021/08/10 05:48:54;;;;;;;;;;;18.90;92.70;;;;;;5078326;28;19909;-64
2021/08/10 05:51:21;;;;;;;;;;;18.90;92.80;;;;;;5078317;28;20390;-64
2021/08/10 05:53:50;;;;;;;;;;;18.80;93.60;;;;;;5078086;28;19959;-64
2021/08/10 05:56:17;;;;;;;;;;;18.80;93.00;;;;;;5078011;28;19915;-65
2021/08/10 05:58:44;;;;;;;;;;;18.80;93.00;;;;;;5078473;28;19909;-64
2021/08/10 06:01:10;;;;;;;;;;;18.90;93.50;;;;;;5078448;28;19909;-64
2021/08/10 06:03:46;;;;;;;;;;;18.90;93.50;;;;;;5076472;28;19967;-64
2021/08/10 06:06:16;;;;;;;;;;;18.90;93.20;;;;;;5074860;28;19909;-65
2021/08/10 06:08:45;;;;;;;;;;;19.00;93.00;;;;;;5074839;28;19913;-64
2021/08/10 06:11:17;;;;;;;;;;;19.00;93.10;;;;;;5074769;28;19916;-64
2021/08/10 06:13:53;;;;;;;;;;;18.90;93.40;;;;;;5074875;28;19932;-65
2021/08/10 06:16:25;;;;;;;;;;;19.10;93.00;;;;;;5074731;28;20313;-64
2021/08/10 06:18:55;;;;;;;;;;;19.10;93.30;;;;;;5074895;28;19908;-64
2021/08/10 06:21:22;;;;;;;;;;;19.00;93.20;;;;;;5074695;28;20508;-66
2021/08/10 06:23:48;;;;;;;;;;;19.00;93.20;;;;;;5074588;28;19959;-65
2021/08/10 06:26:27;;;;;;;;;;;18.90;93.10;;;;;;5074548;28;19908;-65
2021/08/10 06:28:56;;;;;;;;;;;18.90;93.40;;;;;;5074799;28;19908;-66
2021/08/10 06:31:28;;;;;;;;;;;18.80;93.20;;;;;;5074615;28;19921;-67
2021/08/10 06:34:01;;;;;;;;;;;18.70;93.30;;;;;;5074634;28;19909;-65
2021/08/10 06:36:27;;;;;;;;;;;18.60;94.00;;;;;;5074562;28;19946;-65
2021/08/10 06:38:54;;;;;;;;;;;18.60;93.80;;;;;;5074575;28;20442;-65
2021/08/10 06:41:27;;;;;;;;;;;18.60;93.90;;;;;;5074295;28;20282;-65
2021/08/10 06:43:56;;;;;;;;;;;18.70;94.20;;;;;;5074088;28;19908;-64
2021/08/10 06:46:24;;;;;;;;;;;18.70;94.00;;;;;;5074273;28;19921;-65
2021/08/10 06:48:54;;;;;;;;;;;18.60;94.00;;;;;;5074333;28;20359;-65
2021/08/10 06:51:21;;;;;;;;;;;18.60;94.20;;;;;;5072557;28;19917;-65
2021/08/10 06:53:47;;;;;;;;;;;18.60;94.00;;;;;;5071931;28;19912;-65
2021/08/10 06:56:14;;;;;;;;;;;18.60;94.10;;;;;;5071829;28;19908;-65
2021/08/10 06:58:41;;;;;;;;;;;18.50;94.30;;;;;;5071877;28;19955;-66
2021/08/10 07:01:16;;;;;;;;;;;18.40;94.50;;;;;;5071765;28;19983;-64
2021/08/10 07:03:43;;;;;;;;;;;18.40;94.90;;;;;;5070804;28;19913;-65
2021/08/10 07:06:18;;;;;;;;;;;18.30;94.90;;;;;;5071710;28;19920;-64
2021/08/10 07:08:53;;;;;;;;;;;18.20;95.00;;;;;;5071588;28;19909;-66
2021/08/10 07:11:24;;;;;;;;;;;18.10;95.00;;;;;;5071253;28;20010;-65
2021/08/10 07:14:02;;;;;;;;;;;18.00;95.20;;;;;;5071505;28;19912;-65
2021/08/10 07:16:37;;;;;;;;;;;17.90;95.50;;;;;;5070468;28;20221;-64
2021/08/10 07:19:10;;;;;;;;;;;17.90;98.50;;;;;;5069867;28;20342;-64
2021/08/10 07:21:37;;;;;;;;;;;17.80;99.90;;;;;;5071167;28;19995;-65
2021/08/10 07:24:03;;;;;;;;;;;17.70;99.90;;;;;;5071256;28;20279;-64
2021/08/10 07:26:44;;;;;;;;;;;17.60;99.90;;;;;;5071330;28;19989;-64
2021/08/10 07:29:13;;;;;;;;;;;17.50;99.90;;;;;;5083391;28;19919;-64
2021/08/10 07:31:43;;;;;;;;;;;17.40;99.90;;;;;;5090395;28;20318;-65
2021/08/10 07:34:12;;;;;;;;;;;17.40;99.90;;;;;;5091434;28;20077;-64
2021/08/10 07:36:42;;;;;;;;;;;17.20;99.90;;;;;;5091840;28;20044;-65
2021/08/10 07:39:09;;;;;;;;;;;17.10;99.90;;;;;;5091433;28;19969;-65
2021/08/10 07:41:35;;;;;;;;;;;17.10;99.90;;;;;;5090995;28;20079;-66
2021/08/10 07:44:22;;;;;;;;;;;17.00;99.90;;;;;;5090656;28;19923;-66
2021/08/10 07:46:52;;;;;;;;;;;16.90;99.90;;;;;;5069490;28;19936;-65
2021/08/10 07:49:21;;;;;;;;;;;16.90;99.90;;;;;;5071057;28;20278;-65
2021/08/10 07:51:50;;;;;;;;;;;16.90;99.90;;;;;;5070849;28;19964;-65
2021/08/10 07:54:17;;;;;;;;;;;16.90;99.90;;;;;;5071047;28;20341;-65
2021/08/10 07:56:50;;;;;;;;;;;16.80;99.90;;;;;;5070736;28;19913;-66
2021/08/10 07:59:20;;;;;;;;;;;16.80;99.90;;;;;;5070778;28;19912;-65
2021/08/10 08:01:46;;;;;;;;;;;16.90;99.90;;;;;;5069810;28;19908;-64
2021/08/10 08:04:14;;;;;;;;;;;16.80;99.90;;;;;;5071270;28;19912;-64
2021/08/10 08:06:43;;;;;;;;;;;16.70;99.90;;;;;;5102866;28;19959;-65
2021/08/10 08:09:16;;;;;;;;;;;16.70;99.90;;;;;;5070722;28;20348;-65
2021/08/10 08:11:45;;;;;;;;;;;16.70;99.90;;;;;;5070060;28;19923;-65
2021/08/10 08:14:14;;;;;;;;;;;16.60;99.90;;;;;;5070725;28;19913;-65
2021/08/10 08:16:43;;;;;;;;;;;16.60;99.90;;;;;;5070933;28;19910;-65
2021/08/10 08:19:25;;;;;;;;;;;16.60;99.90;;;;;;5070731;28;19909;-65
2021/08/10 08:21:54;;;;;;;;;;;16.50;99.90;;;;;;5070205;28;19908;-65
2021/08/10 08:24:23;;;;;;;;;;;16.50;99.90;;;;;;5069997;28;19966;-65
2021/08/10 08:26:56;;;;;;;;;;;16.50;99.90;;;;;;5056559;28;19920;-64
2021/08/10 08:29:32;;;;;;;;;;;16.40;99.90;;;;;;5050443;28;20363;-65
2021/08/10 08:32:01;;;;;;;;;;;16.50;99.90;;;;;;5050298;28;20265;-65
2021/08/10 08:34:56;;;;;;;;;;;16.50;99.90;;;;;;5050066;28;20308;-65
2021/08/10 08:37:26;;;;;;;;;;;16.50;99.90;;;;;;5049877;28;20422;-64
2021/08/10 08:39:58;;;;;;;;;;;16.50;99.90;;;;;;5049945;28;19908;-64
2021/08/10 08:42:37;;;;;;;;;;;16.50;99.90;;;;;;5049993;28;20251;-65
2021/08/10 08:45:10;;;;;;;;;;;16.40;99.90;;;;;;5050081;28;19913;-64
2021/08/10 08:47:47;;;;;;;;;;;16.40;99.90;;;;;;5049462;28;19995;-64
2021/08/10 08:50:17;;;;;;;;;;;16.40;99.90;;;;;;5049824;28;19948;-65
2021/08/10 08:52:45;;;;;;;;;;;16.40;99.90;;;;;;5050201;28;19959;-64
2021/08/10 08:55:30;;;;;;;;;;;16.40;99.90;;;;;;5051548;28;19913;-64
2021/08/10 08:58:02;;;;;;;;;;;16.30;99.90;;;;;;5050158;28;19913;-65
2021/08/10 09:00:56;;;;;;;;;;;16.30;99.90;;;;;;5049973;28;19909;-65
2021/08/10 09:03:43;;;;;;;;;;;16.30;99.90;;;;;;5049667;28;19954;-64
2021/08/10 09:06:13;;;;;;;;;;;16.30;99.90;;;;;;5051114;28;19908;-64
2021/08/10 09:08:43;;;;;;;;;;;16.40;99.90;;;;;;5051980;28;19909;-64
2021/08/10 09:11:11;;;;;;;;;;;16.30;99.90;;;;;;5051930;28;19928;-64
2021/08/10 09:13:58;;;;;;;;;;;16.30;99.90;;;;;;5050698;28;20348;-64
2021/08/10 09:16:32;;;;;;;;;;;16.30;99.90;;;;;;5051847;28;19920;-66
2021/08/10 09:19:02;;;;;;;;;;;16.30;99.90;;;;;;5051942;28;19916;-65
2021/08/10 09:21:33;;;;;;;;;;;16.30;99.90;;;;;;5051716;28;20351;-64
2021/08/10 09:24:06;;;;;;;;;;;16.30;99.90;;;;;;5051920;28;19909;-65
2021/08/10 09:26:43;;;;;;;;;;;16.30;99.90;;;;;;5053261;28;19947;-66
2021/08/10 09:29:09;;;;;;;;;;;16.30;99.90;;;;;;5051353;28;19909;-65
2021/08/10 09:31:44;;;;;;;;;;;16.30;99.90;;;;;;5051110;28;19917;-66
2021/08/10 09:34:49;;;;;;;;;;;16.30;99.90;;;;;;5051770;28;19978;-66
2021/08/10 09:37:55;;;;;;;;;;;16.30;99.90;;;;;;5060611;28;19915;-65
2021/08/10 09:40:39;;;;;;;;;;;16.30;99.90;;;;;;5053699;28;19992;-65
2021/08/10 09:43:26;;;;;;;;;;;16.30;99.90;;;;;;5054692;28;19913;-66
2021/08/10 09:46:05;;;;;;;;;;;16.30;99.90;;;;;;5060682;28;19921;-65
2021/08/10 09:48:46;;;;;;;;;;;16.30;99.90;;;;;;5075487;28;19923;-66
2021/08/10 09:51:17;;;;;;;;;;;16.30;99.90;;;;;;5075151;28;19935;-66
2021/08/10 09:53:56;;;;;;;;;;;16.30;99.90;;;;;;5074995;28;20007;-65
2021/08/10 09:57:03;;;;;;;;;;;16.20;99.90;;;;;;5074525;28;19909;-67
2021/08/10 09:59:46;;;;;;;;;;;16.20;99.90;;;;;;5012845;28;19909;-65
2021/08/10 10:02:52;;;;;;;;;;;;;;;;;;;;;
2021/08/10 10:05:46;;;;;;;;;;;16.20;99.90;;;;;;5075129;28;19916;-65
2021/08/10 10:08:22;;;;;;;;;;;16.20;99.90;;;;;;5011467;28;19959;-65
2021/08/10 10:10:57;;;;;;;;;;;16.20;99.90;;;;;;5069023;28;19920;-65
2021/08/10 10:13:40;;;;;;;;;;;16.20;99.90;;;;;;5073565;28;19909;-66
2021/08/10 10:16:10;;;;;;;;;;;16.20;99.90;;;;;;5075025;28;19915;-65
2021/08/10 10:18:52;;;;;;;;;;;16.10;99.90;;;;;;5073598;28;19944;-65
2021/08/10 10:21:25;;;;;;;;;;;16.10;99.90;;;;;;5089625;28;19916;-65
2021/08/10 10:24:13;;;;;;;;;;;16.10;99.90;;;;;;5056077;28;20311;-65
2021/08/10 10:26:45;;;;;;;;;;;16.10;99.90;;;;;;5074746;28;20004;-66
2021/08/10 10:29:16;;;;;;;;;;;16.10;99.90;;;;;;5073814;28;19991;-65
2021/08/10 10:31:46;;;;;;;;;;;16.10;99.90;;;;;;5074283;28;19916;-66
2021/08/10 10:34:13;;;;;;;;;;;16.10;99.90;;;;;;5074484;28;19931;-65
2021/08/10 10:36:50;;;;;;;;;;;16.10;99.90;;;;;;5074355;28;19912;-66
2021/08/10 10:39:46;;;;;;;;;;;16.10;99.90;;;;;;5073624;28;19908;-66
2021/08/10 10:42:14;;;;;;;;;;;16.10;99.90;;;;;;5073203;28;19912;-66
2021/08/10 10:44:52;;;;;;;;;;;16.10;99.90;;;;;;5074546;28;19909;-67
2021/08/10 10:47:33;;;;;;;;;;;16.10;99.90;;;;;;5074098;28;19964;-66
2021/08/10 10:50:00;;;;;;;;;;;16.00;99.90;;;;;;5073966;28;19908;-66
2021/08/10 10:52:49;;;;;;;;;;;16.00;99.90;;;;;;5074142;28;19934;-65
2021/08/10 10:55:31;;;;;;;;;;;16.00;99.90;;;;;;5073299;28;19909;-66
2021/08/10 10:58:26;;;;;;;;;;;16.00;99.90;;;;;;5073451;28;19912;-65
2021/08/10 11:01:11;;;;;;;;;;;16.00;99.90;;;;;;5074198;28;19909;-66
2021/08/10 11:03:44;;;;;;;;;;;16.00;99.90;;;;;;5074137;28;20323;-65
2021/08/10 11:06:42;;;;;;;;;;;16.00;99.90;;;;;;5073857;28;19908;-66
2021/08/10 11:09:27;;;;;;;;;;;16.00;99.90;;;;;;5073838;28;20009;-66
2021/08/10 11:11:56;;;;;;;;;;;15.90;99.90;;;;;;5072984;28;19958;-66
2021/08/10 11:14:44;;;;;;;;;;;15.90;99.90;;;;;;5073839;28;20394;-66
2021/08/10 11:17:23;;;;;;;;;;;15.90;99.90;;;;;;5073747;28;19995;-65
2021/08/10 11:19:53;;;;;;;;;;;15.90;99.90;;;;;;5073494;28;19999;-65
2021/08/10 11:22:20;;;;;;;;;;;15.90;99.90;;;;;;5073594;28;20315;-66
2021/08/10 11:27:43;;;;;;;;;;;15.90;99.90;;;;;;5056479;28;19931;-66
2021/08/10 11:30:40;;;;;;;;;;;15.90;99.90;;;;;;5075958;28;19909;-66
2021/08/10 11:33:26;;;;;;;;;;;15.90;99.90;;;;;;5073315;28;20381;-66
2021/08/10 11:35:53;;;;;;;;;;;15.90;99.90;;;;;;5073056;28;20286;-65
2021/08/10 11:38:23;;;;;;;;;;;15.90;99.90;;;;;;5072681;28;19979;-65
2021/08/10 11:40:51;;;;;;;;;;;15.90;99.90;;;;;;5073037;28;20347;-65
2021/08/10 11:43:46;;;;;;;;;;;15.80;99.90;;;;;;5072480;28;19940;-66
2021/08/10 11:46:25;;;;;;;;;;;15.80;99.90;;;;;;5050581;28;19951;-66
2021/08/10 11:49:04;;;;;;;;;;;15.80;99.90;;;;;;5073087;28;19916;-65
2021/08/10 11:51:49;;;;;;;;;;;15.80;99.90;;;;;;5072634;28;19923;-66
2021/08/10 11:54:19;;;;;;;;;;;15.80;99.90;;;;;;5070799;28;19913;-65
2021/08/10 11:56:49;;;;;;;;;;;15.80;99.90;;;;;;5072354;28;19908;-66
2021/08/10 11:59:20;;;;;;;;;;;15.70;99.90;;;;;;5072964;28;19915;-65
2021/08/10 12:01:52;;;;;;;;;;;15.70;99.90;;;;;;5072128;28;20359;-66
2021/08/10 12:04:22;;;;;;;;;;;15.70;99.90;;;;;;5072960;28;19912;-65
2021/08/10 12:07:02;;;;;;;;;;;15.70;99.90;;;;;;5072943;28;19952;-65
2021/08/10 12:09:38;;;;;;;;;;;15.60;99.90;;;;;;5072569;28;20377;-66
2021/08/10 12:12:06;;;;;;;;;;;15.70;99.90;;;;;;5072660;28;19959;-65
2021/08/10 12:14:36;;;;;;;;;;;15.70;99.90;;;;;;5072651;28;19961;-65
2021/08/10 12:17:09;;;;;;;;;;;15.60;99.90;;;;;;5072657;28;19908;-65
2021/08/10 12:19:43;;;;;;;;;;;15.60;99.90;;;;;;5072582;28;20317;-65
2021/08/10 12:22:12;;;;;;;;;;;15.60;99.90;;;;;;5072655;28;19967;-66
2021/08/10 12:24:45;;;;;;;;;;;15.50;99.90;;;;;;5072526;28;20236;-65
2021/08/10 12:27:18;;;;;;;;;;;15.50;99.90;;;;;;5071652;28;19908;-66
2021/08/10 12:29:56;;;;;;;;;;;15.50;99.90;;;;;;5072341;28;19913;-65
2021/08/10 12:32:25;;;;;;;;;;;15.50;99.90;;;;;;5072437;28;19924;-65
2021/08/10 12:34:55;;;;;;;;;;;15.50;99.90;;;;;;5072701;28;19909;-65
2021/08/10 12:37:44;;;;;;;;;;;15.50;99.90;;;;;;5073241;28;19908;-65
2021/08/10 12:43:33;;;;;;;;;;;15.40;99.90;;;;;;5061673;28;19954;-65
2021/08/10 12:46:25;;;;;;;;;;;15.40;99.90;;;;;;5072065;28;19920;-65
2021/08/10 12:49:01;;;;;;;;;;;15.40;99.90;;;;;;5072141;28;19959;-65
2021/08/10 12:51:48;;;;;;;;;;;15.30;99.90;;;;;;5071319;28;19938;-65
2021/08/10 12:54:20;;;;;;;;;;;15.30;99.90;;;;;;5060748;28;19916;-65
2021/08/10 12:56:50;;;;;;;;;;;15.30;99.90;;;;;;5074496;28;19954;-65
2021/08/10 12:59:37;;;;;;;;;;;15.20;99.90;;;;;;5071445;28;19952;-65
2021/08/10 13:02:10;;;;;;;;;;;15.20;99.90;;;;;;5071974;28;19915;-65
2021/08/10 13:04:46;;;;;;;;;;;15.20;99.90;;;;;;5072101;28;19952;-65
2021/08/10 13:07:16;;;;;;;;;;;15.20;99.90;;;;;;5072202;28;19916;-65
2021/08/10 13:09:53;;;;;;;;;;;15.20;99.90;;;;;;5069019;28;20003;-67
2021/08/10 13:12:20;;;;;;;;;;;15.20;99.90;;;;;;5071763;28;19917;-65
2021/08/10 13:15:05;;;;;;;;;;;15.30;99.90;;;;;;5074996;28;20279;-65
2021/08/10 13:17:42;;;;;;;;;;;15.30;99.90;;;;;;5076070;28;19915;-65
2021/08/10 13:20:12;;;;;;;;;;;15.20;99.90;;;;;;5075596;28;20410;-64
2021/08/10 13:22:52;;;;;;;;;;;15.30;99.90;;;;;;5075472;28;19908;-65
2021/08/10 13:25:29;;;;;;;;;;;15.30;99.90;;;;;;5075717;28;19908;-65
2021/08/10 13:28:11;;;;;;;;;;;15.20;99.90;;;;;;5076007;28;19908;-64
2021/08/10 13:30:50;;;;;;;;;;;15.20;99.90;;;;;;5075613;28;20255;-65
2021/08/10 13:33:29;;;;;;;;;;;15.20;99.90;;;;;;5075619;28;20370;-64
2021/08/10 13:36:07;;;;;;;;;;;15.20;99.90;;;;;;5075648;28;19913;-64
2021/08/10 13:38:43;;;;;;;;;;;15.20;99.90;;;;;;5075747;28;19915;-64
2021/08/10 13:41:14;;;;;;;;;;;15.20;99.90;;;;;;5075716;28;19909;-64
2021/08/10 13:43:50;;;;;;;;;;;15.20;99.90;;;;;;5075127;28;19909;-65
2021/08/10 13:46:18;;;;;;;;;;;15.20;99.90;;;;;;5075297;28;19967;-64
2021/08/10 13:48:45;;;;;;;;;;;15.20;99.90;;;;;;5075576;28;19915;-64
2021/08/10 13:51:33;;;;;;;;;;;15.10;99.90;;;;;;5075103;28;19995;-64
2021/08/10 13:54:00;;;;;;;;;;;15.10;99.90;;;;;;5075105;28;20460;-65
2021/08/10 13:56:29;;;;;;;;;;;15.10;99.90;;;;;;5075154;28;19931;-66
2021/08/10 13:58:58;;;;;;;;;;;15.10;99.90;;;;;;5075233;28;19909;-65
2021/08/10 14:04:22;;;;;;;;;;;;;;;;;;;;;
2021/08/10 14:06:49;;;;;;;;;;;15.10;99.90;;;;;;5075166;28;19915;-65
2021/08/10 14:09:31;;;;;;;;;;;15.10;99.90;;;;;;5073362;28;19909;-65
2021/08/10 14:12:06;;;;;;;;;;;15.10;99.90;;;;;;5075026;28;19920;-65
2021/08/10 14:14:47;;;;;;;;;;;15.10;99.90;;;;;;5074397;28;19938;-65
2021/08/10 14:17:23;;;;;;;;;;;15.10;99.90;;;;;;5075113;28;19908;-64
2021/08/10 14:19:53;;;;;;;;;;;15.10;99.90;;;;;;5074583;28;20046;-64
2021/08/10 14:22:22;;;;;;;;;;;15.10;99.90;;;;;;5074917;28;19908;-65
2021/08/10 14:24:49;;;;;;;;;;;15.10;99.90;;;;;;5074439;28;19955;-65
2021/08/10 14:27:16;;;;;;;;;;;15.10;99.90;;;;;;5074717;28;19908;-65
2021/08/10 14:29:43;;;;;;;;;;;15.10;99.90;;;;;;5074448;28;19915;-64
2021/08/10 14:32:23;;;;;;;;;;;15.00;99.90;;;;;;5056315;28;19917;-64
2021/08/10 14:34:49;;;;;;;;;;;15.00;99.90;;;;;;5074645;28;19916;-64
2021/08/10 14:37:37;;;;;;;;;;;15.00;99.90;;;;;;5074609;28;19908;-65
2021/08/10 14:40:07;;;;;;;;;;;15.00;99.90;;;;;;5075033;28;20287;-64
2021/08/10 14:42:44;;;;;;;;;;;14.90;99.90;;;;;;5074483;28;19964;-64
2021/08/10 14:45:14;;;;;;;;;;;14.90;99.90;;;;;;5074335;28;19908;-64
2021/08/10 14:47:41;;;;;;;;;;;14.90;99.90;;;;;;5073985;28;19924;-65
2021/08/10 14:50:13;;;;;;;;;;;14.90;99.90;;;;;;5074137;28;19915;-65
2021/08/10 14:52:43;;;;;;;;;;;14.90;99.90;;;;;;5074374;28;19917;-64
2021/08/10 14:55:22;;;;;;;;;;;;;;;;;;;;;
2021/08/10 14:57:56;;;;;;;;;;;14.90;99.90;;;;;;5068149;28;19909;-64
2021/08/10 15:00:45;;;;;;;;;;;14.90;99.90;;;;;;5073589;28;20349;-65